sensor_id;sensor_type;location;lat;lon;timestamp;temperature;humidity
29363;DHT22;16349;53.672;10.014;2023-07-28T00:02:12;16.30;99.90
29363;DHT22;16349;53.672;10.014;2023-07-28T00:04:40;16.30;99.90
29363;DHT22;16349;53.672;10.014;2023-07-28T00:07:07;16.30;99.90
29363;DHT22;16349;53.672;10.014;2023-07-28T00:09:33;16.30;99.90
29363;DHT22;16349;53.672;10.014;2023-07-28T00:12:01;16.30;99.90
29363;DHT22;16349;53.672;10.014;2023-07-28T00:14:28;16.30;99.90
29363;DHT22;16349;53.672;10.014;2023-07-28T00:16:56;16.30;99.90
29363;DHT22;16349;53.672;10.014;2023-07-28T00:19:23;16.30;99.90
29363;DHT22;16349;53.672;10.014;2023-07-28T00:21:52;16.30;99.90
29363;DHT22;16349;53.672;10.014;2023-07-28T00:24:19;16.20;99.90
29363;DHT22;16349;53.672;10.014;2023-07-28T00:26:46;16.20;99.90
29363;DHT22;16349;53.672;10.014;2023-07-28T00:29:12;16.20;99.90
29363;DHT22;16349;53.672;10.014;2023-07-28T00:31:39;16.20;99.90
29363;DHT22;16349;53.672;10.014;2023-07-28T00:34:07;16.20;99.90
29363;DHT22;16349;53.672;10.014;2023-07-28T00:36:34;16.20;99.90
29363;DHT22;16349;53.672;10.014;2023-07-28T00:39:02;16.20;99.90
29363;DHT22;16349;53.672;10.014;2023-07-28T00:41:29;16.20;99.90
29363;DHT22;16349;53.672;10.014;2023-07-28T00:43:56;16.20;99.90
29363;DHT22;16349;53.672;10.014;2023-07-28T00:46:23;16.20;99.90
29363;DHT22;16349;53.672;10.014;2023-07-28T00:48:50;16.20;99.90
29363;DHT22;16349;53.672;10.014;2023-07-28T00:51:17;16.20;99.90
29363;DHT22;16349;53.672;10.014;2023-07-28T00:53:45;16.20;99.90
29363;DHT22;16349;53.672;10.014;2023-07-28T00:56:14;16.20;99.90
29363;DHT22;16349;53.672;10.014;2023-07-28T00:58:41;16.20;99.90
29363;DHT22;16349;53.672;10.014;2023-07-28T01:01:08;16.20;99.90
29363;DHT22;16349;53.672;10.014;2023-07-28T01:03:35;16.20;99.90
29363;DHT22;16349;53.672;10.014;2023-07-28T01:06:13;16.20;99.90
29363;DHT22;16349;53.672;10.014;2023-07-28T01:08:46;16.20;99.90
29363;DHT22;16349;53.672;10.014;2023-07-28T01:11:15;16.20;99.90
29363;DHT22;16349;53.672;10.014;2023-07-28T01:13:42;16.20;99.90
29363;DHT22;16349;53.672;10.014;2023-07-28T01:16:09;16.20;99.90
29363;DHT22;16349;53.672;10.014;2023-07-28T01:18:36;16.20;99.90
29363;DHT22;16349;53.672;10.014;2023-07-28T01:21:06;16.20;99.90
29363;DHT22;16349;53.672;10.014;2023-07-28T01:23:41;16.30;99.90
29363;DHT22;16349;53.672;10.014;2023-07-28T01:26:10;16.30;99.90
29363;DHT22;16349;53.672;10.014;2023-07-28T01:28:40;16.30;99.90
29363;DHT22;16349;53.672;10.014;2023-07-28T01:31:08;16.20;99.90
29363;DHT22;16349;53.672;10.014;2023-07-28T01:33:35;16.20;99.90
29363;DHT22;16349;53.672;10.014;2023-07-28T01:36:02;16.20;99.90
29363;DHT22;16349;53.672;10.014;2023-07-28T01:38:29;16.20;99.90
29363;DHT22;16349;53.672;10.014;2023-07-28T01:40:56;16.20;99.90
29363;DHT22;16349;53.672;10.014;2023-07-28T01:43:23;16.20;99.90
29363;DHT22;16349;53.672;10.014;2023-07-28T01:45:52;16.20;99.90
29363;DHT22;16349;53.672;10.014;2023-07-28T01:48:19;16.20;99.90
29363;DHT22;16349;53.672;10.014;2023-07-28T01:50:45;16.20;99.90
29363;DHT22;16349;53.672;10.014;2023-07-28T01:53:12;16.20;99.90
29363;DHT22;16349;53.672;10.014;2023-07-28T01:55:39;16.30;99.90
29363;DHT22;16349;53.672;10.014;2023-07-28T01:58:06;16.30;99.90
29363;DHT22;16349;53.672;10.014;2023-07-28T02:00:32;16.20;99.90
29363;DHT22;16349;53.672;10.014;2023-07-28T02:03:00;16.20;99.90
29363;DHT22;16349;53.672;10.014;2023-07-28T02:05:29;16.20;99.90
29363;DHT22;16349;53.672;10.014;2023-07-28T02:07:56;16.20;99.90
29363;DHT22;16349;53.672;10.014;2023-07-28T02:10:23;16.20;99.90
29363;DHT22;16349;53.672;10.014;2023-07-28T02:12:50;16.20;99.90
29363;DHT22;16349;53.672;10.014;2023-07-28T02:15:18;16.20;99.90
29363;DHT22;16349;53.672;10.014;2023-07-28T02:17:44;16.20;99.90
29363;DHT22;16349;53.672;10.014;2023-07-28T02:20:13;16.20;99.90
29363;DHT22;16349;53.672;10.014;2023-07-28T02:22:41;16.20;99.90
29363;DHT22;16349;53.672;10.014;2023-07-28T02:25:08;16.20;99.90
29363;DHT22;16349;53.672;10.014;2023-07-28T02:27:35;16.20;99.90
29363;DHT22;16349;53.672;10.014;2023-07-28T02:30:03;16.20;99.90
29363;DHT22;16349;53.672;10.014;2023-07-28T02:32:30;16.20;99.90
29363;DHT22;16349;53.672;10.014;2023-07-28T02:34:57;16.20;99.90
29363;DHT22;16349;53.672;10.014;2023-07-28T02:37:25;16.20;99.90
29363;DHT22;16349;53.672;10.014;2023-07-28T02:39:52;16.10;99.90
29363;DHT22;16349;53.672;10.014;2023-07-28T02:42:19;16.10;99.90
29363;DHT22;16349;53.672;10.014;2023-07-28T02:44:46;16.10;99.90
29363;DHT22;16349;53.672;10.014;2023-07-28T02:47:13;16.10;99.90
29363;DHT22;16349;53.672;10.014;2023-07-28T02:49:41;16.10;99.90
29363;DHT22;16349;53.672;10.014;2023-07-28T02:52:08;16.10;99.90
29363;DHT22;16349;53.672;10.014;2023-07-28T02:54:37;16.10;99.90
29363;DHT22;16349;53.672;10.014;2023-07-28T02:57:04;16.10;99.90
29363;DHT22;16349;53.672;10.014;2023-07-28T02:59:31;16.10;99.90
29363;DHT22;16349;53.672;10.014;2023-07-28T03:01:58;16.10;99.90
29363;DHT22;16349;53.672;10.014;2023-07-28T03:04:25;16.10;99.90
29363;DHT22;16349;53.672;10.014;2023-07-28T03:07:14;16.10;99.90
29363;DHT22;16349;53.672;10.014;2023-07-28T03:09:44;16.10;99.90
29363;DHT22;16349;53.672;10.014;2023-07-28T03:12:12;16.10;99.90
29363;DHT22;16349;53.672;10.014;2023-07-28T03:14:39;16.10;99.90
29363;DHT22;16349;53.672;10.014;2023-07-28T03:17:06;16.10;99.90
29363;DHT22;16349;53.672;10.014;2023-07-28T03:19:33;16.10;99.90
29363;DHT22;16349;53.672;10.014;2023-07-28T03:22:00;16.10;99.90
29363;DHT22;16349;53.672;10.014;2023-07-28T03:24:27;16.10;99.90
29363;DHT22;16349;53.672;10.014;2023-07-28T03:26:55;16.10;99.90
29363;DHT22;16349;53.672;10.014;2023-07-28T03:29:22;16.10;99.90
29363;DHT22;16349;53.672;10.014;2023-07-28T03:31:50;16.10;99.90
29363;DHT22;16349;53.672;10.014;2023-07-28T03:34:17;16.10;99.90
29363;DHT22;16349;53.672;10.014;2023-07-28T03:36:45;16.10;99.90
29363;DHT22;16349;53.672;10.014;2023-07-28T03:39:12;16.10;99.90
29363;DHT22;16349;53.672;10.014;2023-07-28T03:41:40;16.10;99.90
29363;DHT22;16349;53.672;10.014;2023-07-28T03:44:08;16.10;99.90
29363;DHT22;16349;53.672;10.014;2023-07-28T03:46:35;16.10;99.90
29363;DHT22;16349;53.672;10.014;2023-07-28T03:49:02;16.10;99.90
29363;DHT22;16349;53.672;10.014;2023-07-28T03:51:28;16.10;99.90
29363;DHT22;16349;53.672;10.014;2023-07-28T03:53:55;16.10;99.90
29363;DHT22;16349;53.672;10.014;2023-07-28T03:56:22;16.10;99.90
29363;DHT22;16349;53.672;10.014;2023-07-28T03:58:49;16.10;99.90
29363;DHT22;16349;53.672;10.014;2023-07-28T04:01:17;16.10;99.90
29363;DHT22;16349;53.672;10.014;2023-07-28T04:03:44;16.10;99.90
29363;DHT22;16349;53.672;10.014;2023-07-28T04:06:11;16.10;99.90
29363;DHT22;16349;53.672;10.014;2023-07-28T04:08:38;16.00;99.90
29363;DHT22;16349;53.672;10.014;2023-07-28T04:11:05;16.00;99.90
29363;DHT22;16349;53.672;10.014;2023-07-28T04:13:33;16.00;99.90
29363;DHT22;16349;53.672;10.014;2023-07-28T04:16:00;16.00;99.90
29363;DHT22;16349;53.672;10.014;2023-07-28T04:18:30;16.00;99.90
29363;DHT22;16349;53.672;10.014;2023-07-28T04:20:57;16.00;99.90
29363;DHT22;16349;53.672;10.014;2023-07-28T04:23:24;16.00;99.90
29363;DHT22;16349;53.672;10.014;2023-07-28T04:25:51;16.00;99.90
29363;DHT22;16349;53.672;10.014;2023-07-28T04:28:17;16.00;99.90
29363;DHT22;16349;53.672;10.014;2023-07-28T04:30:45;16.10;99.90
29363;DHT22;16349;53.672;10.014;2023-07-28T04:33:32;16.00;99.90
29363;DHT22;16349;53.672;10.014;2023-07-28T04:36:02;16.10;99.90
29363;DHT22;16349;53.672;10.014;2023-07-28T04:38:33;16.10;99.90
29363;DHT22;16349;53.672;10.014;2023-07-28T04:41:01;16.10;99.90
29363;DHT22;16349;53.672;10.014;2023-07-28T04:43:45;16.10;99.90
29363;DHT22;16349;53.672;10.014;2023-07-28T04:46:12;16.20;99.90
29363;DHT22;16349;53.672;10.014;2023-07-28T04:48:42;16.20;99.90
29363;DHT22;16349;53.672;10.014;2023-07-28T04:51:29;16.20;99.90
29363;DHT22;16349;53.672;10.014;2023-07-28T04:54:28;16.20;99.90
29363;DHT22;16349;53.672;10.014;2023-07-28T04:56:55;16.30;99.90
29363;DHT22;16349;53.672;10.014;2023-07-28T04:59:28;16.30;99.90
29363;DHT22;16349;53.672;10.014;2023-07-28T05:01:56;16.30;99.90
29363;DHT22;16349;53.672;10.014;2023-07-28T05:04:24;16.30;99.90
29363;DHT22;16349;53.672;10.014;2023-07-28T05:14:30;16.40;99.90
29363;DHT22;16349;53.672;10.014;2023-07-28T05:16:57;16.40;99.90
29363;DHT22;16349;53.672;10.014;2023-07-28T05:19:42;16.40;99.90
29363;DHT22;16349;53.672;10.014;2023-07-28T05:22:31;16.40;99.90
29363;DHT22;16349;53.672;10.014;2023-07-28T05:24:58;16.40;99.90
29363;DHT22;16349;53.672;10.014;2023-07-28T05:27:28;16.50;99.90
29363;DHT22;16349;53.672;10.014;2023-07-28T05:29:55;16.50;99.90
29363;DHT22;16349;53.672;10.014;2023-07-28T05:32:22;16.50;99.90
29363;DHT22;16349;53.672;10.014;2023-07-28T05:35:09;16.50;99.90
29363;DHT22;16349;53.672;10.014;2023-07-28T05:37:36;16.60;99.90
29363;DHT22;16349;53.672;10.014;2023-07-28T05:40:03;16.60;99.90
29363;DHT22;16349;53.672;10.014;2023-07-28T05:42:32;16.60;99.90
29363;DHT22;16349;53.672;10.014;2023-07-28T05:44:59;16.60;99.90
29363;DHT22;16349;53.672;10.014;2023-07-28T05:47:26;16.70;99.90
29363;DHT22;16349;53.672;10.014;2023-07-28T05:49:53;16.70;99.90
29363;DHT22;16349;53.672;10.014;2023-07-28T05:52:22;16.70;99.90
29363;DHT22;16349;53.672;10.014;2023-07-28T05:54:49;16.80;99.90
29363;DHT22;16349;53.672;10.014;2023-07-28T05:57:16;16.80;99.90
29363;DHT22;16349;53.672;10.014;2023-07-28T05:59:43;16.90;99.90
29363;DHT22;16349;53.672;10.014;2023-07-28T06:02:10;16.80;99.90
29363;DHT22;16349;53.672;10.014;2023-07-28T06:04:54;16.80;99.90
29363;DHT22;16349;53.672;10.014;2023-07-28T06:07:23;16.90;99.90
29363;DHT22;16349;53.672;10.014;2023-07-28T06:09:51;16.90;99.90
29363;DHT22;16349;53.672;10.014;2023-07-28T06:12:18;16.90;99.90
29363;DHT22;16349;53.672;10.014;2023-07-28T06:14:45;17.00;99.90
29363;DHT22;16349;53.672;10.014;2023-07-28T06:17:12;17.00;99.90
29363;DHT22;16349;53.672;10.014;2023-07-28T06:19:39;17.00;99.90
29363;DHT22;16349;53.672;10.014;2023-07-28T06:22:06;17.10;99.90
29363;DHT22;16349;53.672;10.014;2023-07-28T06:24:39;17.00;99.90
29363;DHT22;16349;53.672;10.014;2023-07-28T06:27:06;17.00;99.90
29363;DHT22;16349;53.672;10.014;2023-07-28T06:29:36;17.00;99.90
29363;DHT22;16349;53.672;10.014;2023-07-28T06:32:04;17.00;99.90
29363;DHT22;16349;53.672;10.014;2023-07-28T06:34:31;17.00;99.90
29363;DHT22;16349;53.672;10.014;2023-07-28T06:36:58;17.20;99.90
29363;DHT22;16349;53.672;10.014;2023-07-28T06:39:25;17.20;99.90
29363;DHT22;16349;53.672;10.014;2023-07-28T06:41:53;17.20;99.90
29363;DHT22;16349;53.672;10.014;2023-07-28T06:44:21;17.20;99.90
29363;DHT22;16349;53.672;10.014;2023-07-28T06:46:47;17.30;99.90
29363;DHT22;16349;53.672;10.014;2023-07-28T06:49:14;17.40;99.90
29363;DHT22;16349;53.672;10.014;2023-07-28T06:51:41;17.40;99.90
29363;DHT22;16349;53.672;10.014;2023-07-28T06:54:10;17.40;99.90
29363;DHT22;16349;53.672;10.014;2023-07-28T06:56:39;17.50;99.90
29363;DHT22;16349;53.672;10.014;2023-07-28T06:59:07;17.50;99.90
29363;DHT22;16349;53.672;10.014;2023-07-28T07:01:34;17.50;99.90
29363;DHT22;16349;53.672;10.014;2023-07-28T07:04:01;17.50;99.90
29363;DHT22;16349;53.672;10.014;2023-07-28T07:06:30;17.50;99.90
29363;DHT22;16349;53.672;10.014;2023-07-28T07:08:57;17.60;99.90
29363;DHT22;16349;53.672;10.014;2023-07-28T07:11:24;17.70;99.90
29363;DHT22;16349;53.672;10.014;2023-07-28T07:13:51;17.70;99.90
29363;DHT22;16349;53.672;10.014;2023-07-28T07:16:19;17.70;99.90
29363;DHT22;16349;53.672;10.014;2023-07-28T07:18:46;17.70;99.90
29363;DHT22;16349;53.672;10.014;2023-07-28T07:21:12;17.70;99.90
29363;DHT22;16349;53.672;10.014;2023-07-28T07:23:39;17.80;99.90
29363;DHT22;16349;53.672;10.014;2023-07-28T07:26:24;17.80;99.90
29363;DHT22;16349;53.672;10.014;2023-07-28T07:28:51;17.80;99.90
29363;DHT22;16349;53.672;10.014;2023-07-28T07:31:19;17.80;99.90
29363;DHT22;16349;53.672;10.014;2023-07-28T07:33:46;17.80;99.90
29363;DHT22;16349;53.672;10.014;2023-07-28T07:36:13;17.80;99.90
29363;DHT22;16349;53.672;10.014;2023-07-28T07:38:41;17.90;99.90
29363;DHT22;16349;53.672;10.014;2023-07-28T07:41:08;17.90;99.90
29363;DHT22;16349;53.672;10.014;2023-07-28T07:43:36;17.90;99.90
29363;DHT22;16349;53.672;10.014;2023-07-28T07:46:03;17.90;99.90
29363;DHT22;16349;53.672;10.014;2023-07-28T07:48:31;17.90;99.90
29363;DHT22;16349;53.672;10.014;2023-07-28T07:50:58;18.00;99.90
29363;DHT22;16349;53.672;10.014;2023-07-28T07:53:25;18.00;99.90
29363;DHT22;16349;53.672;10.014;2023-07-28T07:55:52;18.10;99.90
29363;DHT22;16349;53.672;10.014;2023-07-28T07:58:19;18.20;99.90
29363;DHT22;16349;53.672;10.014;2023-07-28T08:00:46;18.20;99.90
29363;DHT22;16349;53.672;10.014;2023-07-28T08:03:13;18.30;99.90
29363;DHT22;16349;53.672;10.014;2023-07-28T08:05:41;18.30;99.90
29363;DHT22;16349;53.672;10.014;2023-07-28T08:08:08;18.30;99.90
29363;DHT22;16349;53.672;10.014;2023-07-28T08:10:35;18.30;99.90
29363;DHT22;16349;53.672;10.014;2023-07-28T08:13:02;18.30;99.90
29363;DHT22;16349;53.672;10.014;2023-07-28T08:15:29;18.40;99.90
29363;DHT22;16349;53.672;10.014;2023-07-28T08:17:56;18.40;99.90
29363;DHT22;16349;53.672;10.014;2023-07-28T08:20:23;18.40;99.90
29363;DHT22;16349;53.672;10.014;2023-07-28T08:22:52;18.60;99.90
29363;DHT22;16349;53.672;10.014;2023-07-28T08:25:19;18.60;99.90
29363;DHT22;16349;53.672;10.014;2023-07-28T08:27:46;18.70;99.90
29363;DHT22;16349;53.672;10.014;2023-07-28T08:30:12;18.70;99.90
29363;DHT22;16349;53.672;10.014;2023-07-28T08:32:41;18.80;99.90
29363;DHT22;16349;53.672;10.014;2023-07-28T08:35:08;18.90;99.90
29363;DHT22;16349;53.672;10.014;2023-07-28T08:37:35;18.90;99.90
29363;DHT22;16349;53.672;10.014;2023-07-28T08:40:04;19.00;99.90
29363;DHT22;16349;53.672;10.014;2023-07-28T08:42:36;19.00;99.90
29363;DHT22;16349;53.672;10.014;2023-07-28T08:45:04;19.10;99.90
29363;DHT22;16349;53.672;10.014;2023-07-28T08:47:33;19.00;99.90
29363;DHT22;16349;53.672;10.014;2023-07-28T08:50:00;19.00;99.90
29363;DHT22;16349;53.672;10.014;2023-07-28T08:52:26;19.10;99.90
29363;DHT22;16349;53.672;10.014;2023-07-28T08:54:54;19.10;99.90
29363;DHT22;16349;53.672;10.014;2023-07-28T08:57:22;19.20;99.90
29363;DHT22;16349;53.672;10.014;2023-07-28T08:59:49;19.20;99.90
29363;DHT22;16349;53.672;10.014;2023-07-28T09:02:18;19.20;99.90
29363;DHT22;16349;53.672;10.014;2023-07-28T09:04:46;19.20;99.90
29363;DHT22;16349;53.672;10.014;2023-07-28T09:07:13;19.20;99.90
29363;DHT22;16349;53.672;10.014;2023-07-28T09:09:40;19.20;99.90
29363;DHT22;16349;53.672;10.014;2023-07-28T09:12:08;19.20;99.90
29363;DHT22;16349;53.672;10.014;2023-07-28T09:14:37;19.20;99.90
29363;DHT22;16349;53.672;10.014;2023-07-28T09:17:08;19.20;99.90
29363;DHT22;16349;53.672;10.014;2023-07-28T09:19:49;19.20;99.90
29363;DHT22;16349;53.672;10.014;2023-07-28T09:22:16;19.20;99.90
29363;DHT22;16349;53.672;10.014;2023-07-28T09:24:43;19.30;99.90
29363;DHT22;16349;53.672;10.014;2023-07-28T09:27:20;19.40;99.90
29363;DHT22;16349;53.672;10.014;2023-07-28T09:29:49;19.50;99.90
29363;DHT22;16349;53.672;10.014;2023-07-28T09:32:17;19.50;99.90
29363;DHT22;16349;53.672;10.014;2023-07-28T09:35:05;19.60;99.90
29363;DHT22;16349;53.672;10.014;2023-07-28T09:37:36;19.70;99.90
29363;DHT22;16349;53.672;10.014;2023-07-28T09:40:05;19.70;99.90
29363;DHT22;16349;53.672;10.014;2023-07-28T09:42:35;19.70;99.90
29363;DHT22;16349;53.672;10.014;2023-07-28T09:45:05;19.60;99.90
29363;DHT22;16349;53.672;10.014;2023-07-28T09:47:33;19.70;99.90
29363;DHT22;16349;53.672;10.014;2023-07-28T09:50:02;19.80;99.90
29363;DHT22;16349;53.672;10.014;2023-07-28T09:52:33;19.90;99.90
29363;DHT22;16349;53.672;10.014;2023-07-28T09:55:06;19.90;99.90
29363;DHT22;16349;53.672;10.014;2023-07-28T09:57:38;19.90;99.90
29363;DHT22;16349;53.672;10.014;2023-07-28T10:00:08;20.00;99.90
29363;DHT22;16349;53.672;10.014;2023-07-28T10:02:40;20.00;99.90
29363;DHT22;16349;53.672;10.014;2023-07-28T10:05:07;20.00;99.90
29363;DHT22;16349;53.672;10.014;2023-07-28T10:07:38;20.10;99.90
29363;DHT22;16349;53.672;10.014;2023-07-28T10:10:07;20.10;99.90
29363;DHT22;16349;53.672;10.014;2023-07-28T10:12:42;20.00;99.90
29363;DHT22;16349;53.672;10.014;2023-07-28T10:15:14;20.00;99.90
29363;DHT22;16349;53.672;10.014;2023-07-28T10:17:44;20.00;99.90
29363;DHT22;16349;53.672;10.014;2023-07-28T10:20:31;20.10;99.90
29363;DHT22;16349;53.672;10.014;2023-07-28T10:23:11;20.30;99.90
29363;DHT22;16349;53.672;10.014;2023-07-28T10:25:38;20.30;99.90
29363;DHT22;16349;53.672;10.014;2023-07-28T10:28:07;20.40;99.90
29363;DHT22;16349;53.672;10.014;2023-07-28T10:30:37;20.40;99.90
29363;DHT22;16349;53.672;10.014;2023-07-28T10:33:05;20.40;99.90
29363;DHT22;16349;53.672;10.014;2023-07-28T10:35:32;20.40;99.90
29363;DHT22;16349;53.672;10.014;2023-07-28T10:38:30;20.40;99.90
29363;DHT22;16349;53.672;10.014;2023-07-28T10:41:08;20.50;99.90
29363;DHT22;16349;53.672;10.014;2023-07-28T10:43:35;20.60;99.90
29363;DHT22;16349;53.672;10.014;2023-07-28T10:46:04;20.60;99.90
29363;DHT22;16349;53.672;10.014;2023-07-28T10:48:31;20.60;99.90
29363;DHT22;16349;53.672;10.014;2023-07-28T10:50:59;20.50;99.90
29363;DHT22;16349;53.672;10.014;2023-07-28T10:53:26;20.40;99.90
29363;DHT22;16349;53.672;10.014;2023-07-28T10:55:53;20.40;99.90
29363;DHT22;16349;53.672;10.014;2023-07-28T10:58:20;20.40;99.90
29363;DHT22;16349;53.672;10.014;2023-07-28T11:00:46;20.30;99.90
29363;DHT22;16349;53.672;10.014;2023-07-28T11:03:15;20.30;99.90
29363;DHT22;16349;53.672;10.014;2023-07-28T11:05:42;20.40;99.90
29363;DHT22;16349;53.672;10.014;2023-07-28T11:08:09;20.40;99.90
29363;DHT22;16349;53.672;10.014;2023-07-28T11:10:37;20.40;99.90
29363;DHT22;16349;53.672;10.014;2023-07-28T11:13:06;20.50;99.90
29363;DHT22;16349;53.672;10.014;2023-07-28T11:15:33;20.60;99.90
29363;DHT22;16349;53.672;10.014;2023-07-28T11:18:03;20.50;99.90
29363;DHT22;16349;53.672;10.014;2023-07-28T11:20:32;20.50;99.90
29363;DHT22;16349;53.672;10.014;2023-07-28T11:23:01;20.60;99.90
29363;DHT22;16349;53.672;10.014;2023-07-28T11:25:30;20.70;99.90
29363;DHT22;16349;53.672;10.014;2023-07-28T11:27:58;20.80;99.90
29363;DHT22;16349;53.672;10.014;2023-07-28T11:30:27;20.80;99.90
29363;DHT22;16349;53.672;10.014;2023-07-28T11:32:54;20.80;99.90
29363;DHT22;16349;53.672;10.014;2023-07-28T11:35:22;20.90;99.90
29363;DHT22;16349;53.672;10.014;2023-07-28T11:37:52;21.00;99.90
29363;DHT22;16349;53.672;10.014;2023-07-28T11:40:21;21.10;99.90
29363;DHT22;16349;53.672;10.014;2023-07-28T11:42:49;21.20;99.90
29363;DHT22;16349;53.672;10.014;2023-07-28T11:45:18;21.30;99.90
29363;DHT22;16349;53.672;10.014;2023-07-28T11:47:54;21.30;99.90
29363;DHT22;16349;53.672;10.014;2023-07-28T11:50:25;21.40;99.90
29363;DHT22;16349;53.672;10.014;2023-07-28T11:52:55;21.50;99.90
29363;DHT22;16349;53.672;10.014;2023-07-28T11:55:22;21.50;99.90
29363;DHT22;16349;53.672;10.014;2023-07-28T11:57:49;21.50;99.90
29363;DHT22;16349;53.672;10.014;2023-07-28T12:00:18;21.60;99.90
29363;DHT22;16349;53.672;10.014;2023-07-28T12:03:00;21.70;99.90
29363;DHT22;16349;53.672;10.014;2023-07-28T12:05:29;21.80;99.90
29363;DHT22;16349;53.672;10.014;2023-07-28T12:07:57;21.90;99.90
29363;DHT22;16349;53.672;10.014;2023-07-28T12:10:24;21.90;99.90
29363;DHT22;16349;53.672;10.014;2023-07-28T12:12:51;22.00;99.90
29363;DHT22;16349;53.672;10.014;2023-07-28T12:15:23;21.90;99.90
29363;DHT22;16349;53.672;10.014;2023-07-28T12:18:04;22.00;99.90
29363;DHT22;16349;53.672;10.014;2023-07-28T12:20:39;22.00;99.90
29363;DHT22;16349;53.672;10.014;2023-07-28T12:23:09;22.10;99.90
29363;DHT22;16349;53.672;10.014;2023-07-28T12:25:36;22.10;99.90
29363;DHT22;16349;53.672;10.014;2023-07-28T12:28:04;22.10;99.90
29363;DHT22;16349;53.672;10.014;2023-07-28T12:30:31;22.20;99.90
29363;DHT22;16349;53.672;10.014;2023-07-28T12:32:58;22.20;99.90
29363;DHT22;16349;53.672;10.014;2023-07-28T12:35:26;22.10;99.90
29363;DHT22;16349;53.672;10.014;2023-07-28T12:37:57;22.20;99.90
29363;DHT22;16349;53.672;10.014;2023-07-28T12:40:27;22.30;99.90
29363;DHT22;16349;53.672;10.014;2023-07-28T12:42:55;22.40;99.90
29363;DHT22;16349;53.672;10.014;2023-07-28T12:45:22;22.40;99.90
29363;DHT22;16349;53.672;10.014;2023-07-28T12:47:51;22.40;99.90
29363;DHT22;16349;53.672;10.014;2023-07-28T12:50:19;22.40;99.90
29363;DHT22;16349;53.672;10.014;2023-07-28T12:52:46;22.50;99.90
29363;DHT22;16349;53.672;10.014;2023-07-28T12:55:14;22.60;99.90
29363;DHT22;16349;53.672;10.014;2023-07-28T12:57:42;22.60;99.90
29363;DHT22;16349;53.672;10.014;2023-07-28T13:00:10;22.50;99.90
29363;DHT22;16349;53.672;10.014;2023-07-28T13:02:39;22.40;99.90
29363;DHT22;16349;53.672;10.014;2023-07-28T13:05:07;22.40;99.90
29363;DHT22;16349;53.672;10.014;2023-07-28T13:07:35;22.30;99.90
29363;DHT22;16349;53.672;10.014;2023-07-28T13:10:04;22.30;99.90
29363;DHT22;16349;53.672;10.014;2023-07-28T13:12:31;22.20;99.90
29363;DHT22;16349;53.672;10.014;2023-07-28T13:14:59;22.20;99.90
29363;DHT22;16349;53.672;10.014;2023-07-28T13:17:26;22.20;99.90
29363;DHT22;16349;53.672;10.014;2023-07-28T13:19:53;22.20;99.90
29363;DHT22;16349;53.672;10.014;2023-07-28T13:22:22;22.10;99.90
29363;DHT22;16349;53.672;10.014;2023-07-28T13:24:49;22.10;99.90
29363;DHT22;16349;53.672;10.014;2023-07-28T13:27:16;22.10;99.90
29363;DHT22;16349;53.672;10.014;2023-07-28T13:29:43;22.10;99.90
29363;DHT22;16349;53.672;10.014;2023-07-28T13:32:19;22.10;99.90
29363;DHT22;16349;53.672;10.014;2023-07-28T13:34:49;22.10;99.90
29363;DHT22;16349;53.672;10.014;2023-07-28T13:37:16;22.30;99.90
29363;DHT22;16349;53.672;10.014;2023-07-28T13:39:42;22.50;99.90
29363;DHT22;16349;53.672;10.014;2023-07-28T13:42:09;22.60;99.90
29363;DHT22;16349;53.672;10.014;2023-07-28T13:44:38;22.80;99.90
29363;DHT22;16349;53.672;10.014;2023-07-28T13:47:05;23.00;99.90
29363;DHT22;16349;53.672;10.014;2023-07-28T13:49:58;22.80;99.90
29363;DHT22;16349;53.672;10.014;2023-07-28T13:52:25;22.90;99.90
29363;DHT22;16349;53.672;10.014;2023-07-28T13:54:52;23.30;99.90
29363;DHT22;16349;53.672;10.014;2023-07-28T13:57:19;23.60;99.90
29363;DHT22;16349;53.672;10.014;2023-07-28T13:59:46;23.80;99.90
29363;DHT22;16349;53.672;10.014;2023-07-28T14:02:14;23.60;99.90
29363;DHT22;16349;53.672;10.014;2023-07-28T14:04:41;23.40;99.90
29363;DHT22;16349;53.672;10.014;2023-07-28T14:07:10;23.30;99.90
29363;DHT22;16349;53.672;10.014;2023-07-28T14:09:37;23.20;99.90
29363;DHT22;16349;53.672;10.014;2023-07-28T14:12:05;23.00;99.90
29363;DHT22;16349;53.672;10.014;2023-07-28T14:14:32;22.90;99.90
29363;DHT22;16349;53.672;10.014;2023-07-28T14:16:59;22.80;99.90
29363;DHT22;16349;53.672;10.014;2023-07-28T14:19:37;22.80;99.90
29363;DHT22;16349;53.672;10.014;2023-07-28T14:22:10;22.80;99.90
29363;DHT22;16349;53.672;10.014;2023-07-28T14:24:37;23.00;99.90
29363;DHT22;16349;53.672;10.014;2023-07-28T14:27:06;23.10;99.90
29363;DHT22;16349;53.672;10.014;2023-07-28T14:29:39;23.00;99.90
29363;DHT22;16349;53.672;10.014;2023-07-28T14:32:08;22.80;99.90
29363;DHT22;16349;53.672;10.014;2023-07-28T14:34:38;22.60;99.90
29363;DHT22;16349;53.672;10.014;2023-07-28T14:37:05;22.50;99.90
29363;DHT22;16349;53.672;10.014;2023-07-28T14:39:34;22.40;99.90
29363;DHT22;16349;53.672;10.014;2023-07-28T14:42:01;22.40;99.90
29363;DHT22;16349;53.672;10.014;2023-07-28T14:44:27;22.40;99.90
29363;DHT22;16349;53.672;10.014;2023-07-28T14:46:55;22.50;99.90
29363;DHT22;16349;53.672;10.014;2023-07-28T14:49:22;22.70;99.90
29363;DHT22;16349;53.672;10.014;2023-07-28T14:51:53;23.00;99.90
29363;DHT22;16349;53.672;10.014;2023-07-28T14:54:20;23.20;99.90
29363;DHT22;16349;53.672;10.014;2023-07-28T14:56:48;23.40;99.90
29363;DHT22;16349;53.672;10.014;2023-07-28T14:59:15;23.50;99.90
29363;DHT22;16349;53.672;10.014;2023-07-28T15:01:43;23.40;99.90
29363;DHT22;16349;53.672;10.014;2023-07-28T15:04:10;23.60;99.90
29363;DHT22;16349;53.672;10.014;2023-07-28T15:06:39;24.40;99.90
29363;DHT22;16349;53.672;10.014;2023-07-28T15:09:06;24.90;99.90
29363;DHT22;16349;53.672;10.014;2023-07-28T15:11:33;25.60;99.90
29363;DHT22;16349;53.672;10.014;2023-07-28T15:14:01;26.00;99.90
29363;DHT22;16349;53.672;10.014;2023-07-28T15:16:28;26.20;99.90
29363;DHT22;16349;53.672;10.014;2023-07-28T15:18:57;26.40;99.90
29363;DHT22;16349;53.672;10.014;2023-07-28T15:21:24;26.50;99.90
29363;DHT22;16349;53.672;10.014;2023-07-28T15:23:53;26.80;99.90
29363;DHT22;16349;53.672;10.014;2023-07-28T15:26:20;26.30;99.90
29363;DHT22;16349;53.672;10.014;2023-07-28T15:28:47;25.80;99.90
29363;DHT22;16349;53.672;10.014;2023-07-28T15:31:15;25.20;99.90
29363;DHT22;16349;53.672;10.014;2023-07-28T15:33:42;24.90;99.90